Time;durP1;ratioP1;P1;durP2;ratioP2;P2;SDS_P1;SDS_P2;PMS_P1;PMS_P2;Temp;Humidity;BMP_temperature;BMP_pressure;BME280_temperature;BME280_humidity;BME280_pressure;Samples;Min_cycle;Max_cycle;Signal;HPM_P1;HPM_P2
2021/08/23 00:00:17;;;;;;;3.47;1.20;;;;;;;12.74;74.91;100146.76;1808549;78;20916;-73
2021/08/23 00:02:45;;;;;;;3.67;0.95;;;;;;;12.67;75.04;100151.90;1807852;78;20913;-72
2021/08/23 00:05:12;;;;;;;1.07;0.85;;;;;;;12.69;75.26;100150.53;1809580;78;21035;-73
2021/08/23 00:07:39;;;;;;;1.60;0.98;;;;;;;12.71;75.38;100149.50;1807060;78;20865;-73
2021/08/23 00:10:08;;;;;;;1.20;0.70;;;;;;;12.74;75.36;100148.50;1807516;78;20906;-73
2021/08/23 00:12:34;;;;;;;1.30;0.93;;;;;;;12.75;75.37;100152.37;1805990;78;20838;-73
2021/08/23 00:15:01;;;;;;;1.25;0.80;;;;;;;12.79;75.43;100149.59;1804543;78;20874;-73
2021/08/23 00:17:28;;;;;;;1.37;1.05;;;;;;;12.83;75.47;100151.16;1794336;78;21074;-72
2021/08/23 00:19:55;;;;;;;2.30;0.82;;;;;;;12.84;75.41;100148.91;1806169;78;20966;-72
2021/08/23 00:24:50;;;;;;;3.03;0.80;;;;;;;12.80;75.37;100144.73;1815631;78;21409;-73
2021/08/23 00:27:18;;;;;;;1.10;0.90;;;;;;;12.79;75.45;100143.05;1811947;78;21484;-73
2021/08/23 00:29:46;;;;;;;2.40;1.02;;;;;;;12.80;75.51;100151.28;1811826;78;21462;-73
2021/08/23 00:32:14;;;;;;;4.85;1.10;;;;;;;12.79;75.43;100150.91;1823954;78;20877;-73
2021/08/23 00:34:41;;;;;;;4.15;1.15;;;;;;;12.76;75.38;100143.58;1829287;77;20877;-73
2021/08/23 00:37:08;;;;;;;1.35;0.88;;;;;;;12.74;75.37;100148.07;1833097;78;21030;-73
2021/08/23 00:39:38;;;;;;;0.95;0.85;;;;;;;12.73;75.37;100151.59;1833633;77;20881;-73
2021/08/23 00:42:06;;;;;;;1.12;0.80;;;;;;;12.72;75.36;100153.84;1831180;78;21042;-73
2021/08/23 00:44:36;;;;;;;2.37;1.20;;;;;;;12.71;75.35;100163.91;1832706;77;20881;-73
2021/08/23 00:47:05;;;;;;;2.45;1.07;;;;;;;12.66;75.16;100163.31;1833190;78;20858;-73
2021/08/23 00:49:36;;;;;;;1.17;0.88;;;;;;;12.51;75.05;100167.97;1833799;77;20905;-73
2021/08/23 00:52:05;;;;;;;1.32;0.90;;;;;;;12.37;75.13;100167.31;1830660;77;20972;-73
2021/08/23 00:54:35;;;;;;;2.83;1.32;;;;;;;12.24;75.19;100170.16;1830414;77;21061;-73
2021/08/23 00:57:04;;;;;;;3.90;1.02;;;;;;;12.12;75.29;100171.55;1833771;78;20889;-73
2021/08/23 00:59:34;;;;;;;2.12;1.05;;;;;;;12.05;75.39;100164.92;1828486;77;21043;-73
2021/08/23 01:02:17;;;;;;;1.40;0.88;;;;;;;11.97;75.44;100157.41;1829326;77;21475;-73
2021/08/23 01:05:11;;;;;;;1.00;0.90;;;;;;;11.93;75.49;100160.23;1833388;77;20862;-73
2021/08/23 01:07:42;;;;;;;1.52;0.80;;;;;;;11.86;75.49;100157.89;1833443;77;21866;-73
2021/08/23 01:10:15;;;;;;;1.50;0.90;;;;;;;11.79;75.56;100153.84;1832618;77;21436;-73
2021/08/23 01:12:43;;;;;;;2.02;0.93;;;;;;;11.77;75.67;100146.98;1832520;77;20927;-72
2021/08/23 01:15:10;;;;;;;0.85;0.70;;;;;;;11.78;75.91;100151.28;1835482;77;20861;-72
2021/08/23 01:17:37;;;;;;;2.50;1.00;;;;;;;11.83;75.85;100152.77;1812579;78;20921;-73
2021/08/23 01:20:07;;;;;;;1.70;0.90;;;;;;;11.87;75.76;100153.50;1825305;77;21851;-73
2021/08/23 01:22:39;;;;;;;0.70;0.65;;;;;;;11.88;75.72;100151.77;1833282;78;20844;-73
2021/08/23 01:25:08;;;;;;;1.00;0.80;;;;;;;11.88;75.64;100153.08;1831892;78;20881;-73
2021/08/23 01:27:38;;;;;;;2.95;0.90;;;;;;;11.90;75.86;100151.21;1833287;78;20877;-73
2021/08/23 01:30:12;;;;;;;1.30;0.93;;;;;;;11.91;75.65;100150.31;1834860;77;20965;-73
2021/08/23 01:32:41;;;;;;;1.27;0.75;;;;;;;11.91;75.58;100147.70;1840216;76;21087;-73
2021/08/23 01:35:08;;;;;;;1.82;0.90;;;;;;;11.88;75.50;100139.99;1847724;77;20871;-73
2021/08/23 01:37:37;;;;;;;;;;;;;;;11.83;75.48;100139.69;1839901;76;20873;-73
2021/08/23 01:40:07;;;;;;;2.65;1.00;;;;;;;11.84;75.57;100133.53;1833664;77;20510;-73
2021/08/23 01:42:34;;;;;;;1.10;0.78;;;;;;;11.86;75.54;100139.58;1836423;77;20925;-73
2021/08/23 01:45:01;;;;;;;3.85;0.90;;;;;;;11.93;75.46;100137.98;1836241;77;21440;-73
2021/08/23 01:47:28;;;;;;;2.27;1.00;;;;;;;11.97;75.39;100130.40;1836491;76;20878;-73
2021/08/23 01:49:55;;;;;;;1.00;0.90;;;;;;;12.01;75.26;100137.17;1836499;76;20882;-72
2021/08/23 01:52:21;;;;;;;2.47;0.80;;;;;;;12.05;75.17;100136.13;1836625;77;20878;-73
2021/08/23 01:54:48;;;;;;;1.17;0.88;;;;;;;12.11;75.15;100140.22;1836295;76;20921;-73
2021/08/23 01:57:20;;;;;;;1.23;0.97;;;;;;;12.11;75.06;100130.59;1836672;77;21030;-73
2021/08/23 01:59:47;;;;;;;1.17;0.78;;;;;;;12.09;74.93;100128.04;1819807;78;20878;-73
2021/08/23 02:02:14;;;;;;;1.40;0.80;;;;;;;12.06;74.80;100132.58;1836570;77;20878;-73
2021/08/23 02:04:41;;;;;;;1.25;0.78;;;;;;;12.04;74.88;100131.79;1836725;77;21372;-73
2021/08/23 02:07:07;;;;;;;3.08;1.00;;;;;;;12.05;74.89;100136.13;1844744;76;20902;-73
2021/08/23 02:09:34;;;;;;;1.50;0.93;;;;;;;12.08;74.83;100137.29;1861599;77;21091;-73
2021/08/23 02:12:01;;;;;;;1.20;0.90;;;;;;;12.08;74.79;100130.75;1861862;77;20992;-73
2021/08/23 02:14:28;;;;;;;1.50;0.90;;;;;;;12.09;74.81;100129.81;1861991;77;21530;-73
2021/08/23 02:16:54;;;;;;;1.00;0.80;;;;;;;12.15;74.82;100136.53;1861673;77;20862;-73
2021/08/23 02:19:22;;;;;;;1.50;1.05;;;;;;;12.22;74.89;100128.78;1861991;77;21471;-73
2021/08/23 02:21:54;;;;;;;1.60;1.10;;;;;;;12.27;74.81;100128.95;1861567;77;21250;-73
2021/08/23 02:24:23;;;;;;;1.82;0.80;;;;;;;12.33;74.73;100126.97;1861789;75;20893;-73
2021/08/23 02:26:51;;;;;;;1.07;0.85;;;;;;;12.34;74.63;100139.13;1861815;77;20926;-73
2021/08/23 02:29:17;;;;;;;1.30;0.70;;;;;;;12.34;74.68;100128.66;1833212;77;20921;-73
2021/08/23 02:31:44;;;;;;;1.17;0.60;;;;;;;12.36;74.68;100134.67;1856118;77;20866;-73
2021/08/23 02:34:11;;;;;;;1.83;0.90;;;;;;;12.39;74.72;100126.67;1854565;77;21057;-73
2021/08/23 02:36:37;;;;;;;1.50;1.03;;;;;;;12.40;74.68;100125.73;1832968;77;20923;-73
2021/08/23 02:39:05;;;;;;;1.17;0.80;;;;;;;12.42;74.71;100110.80;1786334;80;21433;-73
2021/08/23 02:41:32;;;;;;;3.70;1.00;;;;;;;12.43;74.66;100104.63;1800324;77;20874;-73
2021/08/23 02:43:59;;;;;;;1.67;0.80;;;;;;;12.39;74.58;100121.44;1848166;77;20950;-73
2021/08/23 02:46:25;;;;;;;1.10;0.80;;;;;;;12.38;74.65;100107.50;1835626;77;20976;-73
2021/08/23 02:48:52;;;;;;;1.37;0.78;;;;;;;12.33;74.72;100117.34;1815053;79;20898;-72
2021/08/23 02:51:19;;;;;;;1.67;0.83;;;;;;;12.33;74.78;100114.72;1814700;79;20950;-73
2021/08/23 02:53:45;;;;;;;1.43;0.90;;;;;;;12.34;74.75;100118.18;1814983;79;20917;-73
2021/08/23 02:56:12;;;;;;;1.40;0.93;;;;;;;12.33;74.80;100122.58;1815109;79;20888;-72
2021/08/23 02:58:39;;;;;;;0.93;0.80;;;;;;;12.34;74.86;100122.95;1815008;79;21969;-73
2021/08/23 03:01:05;;;;;;;0.98;0.60;;;;;;;12.36;74.89;100124.20;1814821;79;20918;-72
2021/08/23 03:03:35;;;;;;;1.27;0.90;;;;;;;12.37;74.80;100131.13;1815076;79;20882;-72
2021/08/23 03:06:02;;;;;;;1.10;0.93;;;;;;;12.35;74.78;100130.34;1838673;77;20844;-73
2021/08/23 03:08:28;;;;;;;1.30;0.68;;;;;;;12.33;74.92;100138.75;1848150;76;20934;-73
2021/08/23 03:11:11;;;;;;;1.00;0.70;;;;;;;12.34;74.95;100139.13;1845107;77;21098;-73
2021/08/23 03:13:41;;;;;;;2.75;0.80;;;;;;;12.34;74.95;100137.82;1785302;80;21571;-73
2021/08/23 03:16:09;;;;;;;1.37;0.78;;;;;;;12.33;75.00;100134.83;1807537;78;20934;-73
2021/08/23 03:18:36;;;;;;;1.32;0.62;;;;;;;12.31;75.17;100137.03;1806121;78;20870;-73
2021/08/23 03:21:03;;;;;;;1.35;0.90;;;;;;;12.33;75.19;100140.06;1813117;78;20949;-73
2021/08/23 03:23:31;;;;;;;1.70;0.80;;;;;;;12.34;75.24;100142.59;1811056;78;21033;-73
2021/08/23 03:25:59;;;;;;;1.67;0.80;;;;;;;12.36;75.31;100144.69;1812974;78;21414;-73
2021/08/23 03:28:26;;;;;;;1.65;0.80;;;;;;;12.38;75.29;100148.52;1813224;78;20886;-73
2021/08/23 03:30:52;;;;;;;1.07;0.70;;;;;;;12.40;75.37;100139.67;1809607;78;20894;-73
2021/08/23 03:33:19;;;;;;;2.08;0.80;;;;;;;12.41;75.37;100153.64;1813301;78;20945;-73
2021/08/23 03:35:46;;;;;;;0.82;0.75;;;;;;;12.43;75.61;100154.39;1813259;78;21073;-74
2021/08/23 03:38:13;;;;;;;0.98;0.65;;;;;;;12.46;75.61;100152.94;1808464;78;20911;-73
2021/08/23 03:40:40;;;;;;;3.40;0.72;;;;;;;12.47;75.54;100155.96;1814628;78;20965;-73
2021/08/23 03:43:07;;;;;;;1.05;0.78;;;;;;;12.49;75.75;100154.09;1820112;78;21362;-73
2021/08/23 03:45:34;;;;;;;1.03;0.77;;;;;;;12.49;75.65;100156.71;1801513;78;20910;-73
2021/08/23 03:48:01;;;;;;;;;;;;;;;12.51;75.73;100161.42;1776210;78;21195;-73
2021/08/23 03:50:28;;;;;;;2.75;1.07;;;;;;;12.52;75.89;100169.69;1809300;78;20079;-74
2021/08/23 03:52:54;;;;;;;1.23;0.90;;;;;;;12.56;75.91;100166.45;1803162;79;20938;-73
2021/08/23 03:55:22;;;;;;;1.00;0.60;;;;;;;12.70;76.07;100163.53;1803268;79;20977;-73
2021/08/23 03:57:48;;;;;;;;;;;;;;;13.21;76.22;100165.78;1805590;79;20949;-73
2021/08/23 04:00:15;;;;;;;2.15;0.80;;;;;;;13.46;75.66;100173.73;1802509;79;22226;-73
2021/08/23 04:02:42;;;;;;;1.20;0.83;;;;;;;13.57;75.44;100173.18;1809376;78;20926;-73
2021/08/23 04:05:09;;;;;;;1.85;1.00;;;;;;;13.56;75.37;100171.49;1814336;78;20853;-73
2021/08/23 04:07:35;;;;;;;2.12;1.32;;;;;;;13.51;75.29;100169.09;1814642;78;20900;-73
2021/08/23 04:10:03;;;;;;;1.40;0.90;;;;;;;13.58;75.53;100173.11;1813018;78;21451;-73
2021/08/23 04:12:29;;;;;;;1.62;1.02;;;;;;;13.65;75.26;100181.03;1806750;78;21036;-73
2021/08/23 04:14:56;;;;;;;4.87;1.23;;;;;;;13.61;75.19;100172.95;1810586;78;20933;-73
2021/08/23 04:17:23;;;;;;;1.35;0.93;;;;;;;13.57;75.21;100179.73;1807157;78;20890;-73
2021/08/23 04:19:49;;;;;;;9.85;1.50;;;;;;;13.59;75.31;100180.05;1815342;78;20874;-73
2021/08/23 04:22:16;;;;;;;7.37;1.17;;;;;;;13.56;74.95;100184.14;1815124;78;20953;-73
2021/08/23 04:24:42;;;;;;;20.63;2.67;;;;;;;13.42;74.86;100185.33;1816219;78;21839;-73
2021/08/23 04:27:09;;;;;;;14.35;1.55;;;;;;;13.34;74.93;100193.58;1820145;78;21456;-73
2021/08/23 04:29:36;;;;;;;4.83;2.30;;;;;;;13.29;75.04;100189.49;1823924;78;21440;-72
2021/08/23 04:32:03;;;;;;;2.95;1.20;;;;;;;13.27;74.99;100196.59;1816421;78;21484;-72
2021/08/23 04:34:30;;;;;;;2.33;1.25;;;;;;;13.33;75.19;100201.52;1811516;78;20938;-73
2021/08/23 04:37:03;;;;;;;3.22;1.00;;;;;;;13.49;75.26;100194.55;1810025;78;21032;-72
2021/08/23 04:39:25;;;;;;;1.72;1.10;;;;;;;14.31;76.04;100193.23;1812872;78;20894;-72
2021/08/23 04:41:52;;;;;;;5.23;1.83;;;;;;;15.07;75.25;100192.92;1810581;78;21317;-72
2021/08/23 04:44:19;;;;;;;4.03;1.50;;;;;;;15.43;74.57;100192.53;1813539;78;20919;-73
2021/08/23 04:46:49;;;;;;;7.33;1.47;;;;;;;15.37;73.87;100199.00;1815123;78;20926;-72
2021/08/23 04:49:14;;;;;;;2.05;1.22;;;;;;;15.20;73.85;100200.48;1814572;78;21314;-72
2021/08/23 04:51:40;;;;;;;4.27;1.20;;;;;;;15.03;73.77;100197.99;1811924;78;20882;-72
2021/08/23 04:54:07;;;;;;;3.03;1.30;;;;;;;14.86;73.80;100203.75;1814098;78;21604;-72
2021/08/23 04:56:33;;;;;;;1.33;1.17;;;;;;;14.68;73.73;100203.03;1811790;78;20933;-72
2021/08/23 04:59:00;;;;;;;2.50;1.00;;;;;;;14.50;73.38;100194.35;1813910;78;21125;-72
2021/08/23 05:01:27;;;;;;;4.92;1.30;;;;;;;14.40;73.87;100195.81;1815001;78;21992;-72
2021/08/23 05:03:54;;;;;;;2.30;1.10;;;;;;;14.58;74.51;100201.84;1805880;78;20886;-72
2021/08/23 05:06:20;;;;;;;2.40;1.33;;;;;;;15.20;73.90;100199.16;1815370;78;20836;-72
2021/08/23 05:08:47;;;;;;;2.65;1.40;;;;;;;15.75;73.53;100199.84;1814765;78;20883;-73
2021/08/23 05:11:13;;;;;;;3.67;1.40;;;;;;;16.53;71.39;100195.41;1811378;78;20883;-73
2021/08/23 05:13:40;;;;;;;2.10;1.20;;;;;;;16.53;71.39;100195.41;1815282;78;21882;-72
2021/08/23 05:16:07;;;;;;;6.22;1.72;;;;;;;16.21;70.21;100195.66;1821563;78;21457;-72
2021/08/23 05:18:33;;;;;;;2.15;1.10;;;;;;;16.42;70.93;100196.09;1813428;78;20851;-73
2021/08/23 05:21:03;;;;;;;1.55;1.10;;;;;;;16.75;71.09;100195.71;1812382;78;20894;-73
2021/08/23 05:23:30;;;;;;;4.78;1.20;;;;;;;17.39;72.02;100195.01;1809017;78;20910;-72
2021/08/23 05:25:57;;;;;;;1.75;1.25;;;;;;;18.18;71.56;100193.10;1810894;78;21003;-72
2021/08/23 05:28:30;;;;;;;1.40;1.20;;;;;;;18.65;70.04;100191.44;1809522;78;20915;-71
2021/08/23 05:31:15;;;;;;;2.10;1.22;;;;;;;18.91;68.26;100193.05;1759212;78;21488;-71
2021/08/23 05:33:46;;;;;;;2.80;1.37;;;;;;;19.04;68.67;100186.82;1776162;78;20903;-71
2021/08/23 05:59:56;;;;;;;1.45;1.15;;;;;;;19.00;65.08;100176.47;1628306;86;21153;-71
2021/08/23 06:02:31;;;;;;;3.92;1.30;;;;;;;18.69;64.41;100182.34;1639367;85;21105;-71
2021/08/23 06:04:57;;;;;;;2.33;1.30;;;;;;;18.59;65.88;100181.31;1644775;85;21625;-71
2021/08/23 06:07:24;;;;;;;2.42;1.62;;;;;;;18.44;64.53;100184.13;1642907;85;21050;-71
2021/08/23 06:09:51;;;;;;;2.08;1.35;;;;;;;18.08;64.67;100177.88;1639987;85;21538;-71
2021/08/23 06:12:17;;;;;;;1.92;1.30;;;;;;;17.73;63.96;100184.77;1638127;85;21036;-72
2021/08/23 06:14:44;;;;;;;1.50;1.20;;;;;;;17.79;65.60;100179.95;1638889;85;21098;-73
2021/08/23 06:17:11;;;;;;;2.05;1.57;;;;;;;18.10;63.00;100176.47;1639659;85;21527;-73
2021/08/23 06:19:38;;;;;;;1.77;1.30;;;;;;;18.15;64.12;100179.63;1640680;85;21058;-70
2021/08/23 06:22:05;;;;;;;5.58;1.52;;;;;;;18.00;64.27;100176.73;1639645;85;21042;-71
2021/08/23 06:24:32;;;;;;;2.85;1.47;;;;;;;17.96;64.25;100178.77;1637644;87;21848;-71
2021/08/23 06:26:58;;;;;;;3.40;1.77;;;;;;;17.96;64.27;100184.05;1640181;85;21041;-72
2021/08/23 06:29:25;;;;;;;3.08;1.30;;;;;;;17.93;63.27;100200.12;1646582;85;21041;-70
2021/08/23 06:31:51;;;;;;;1.62;1.30;;;;;;;17.88;63.27;100203.55;1639408;86;21006;-71
2021/08/23 06:34:18;;;;;;;5.87;1.80;;;;;;;17.92;63.51;100195.77;1616700;87;21025;-71
2021/08/23 06:36:46;;;;;;;2.60;1.60;;;;;;;18.06;63.14;100191.70;1645586;84;21072;-70
2021/08/23 06:39:13;;;;;;;3.95;1.50;;;;;;;18.14;63.38;100197.73;1638457;85;20974;-71
2021/08/23 06:41:40;;;;;;;2.67;1.65;;;;;;;18.46;62.57;100195.44;1636143;85;21714;-71
2021/08/23 06:44:06;;;;;;;;;;;;;;;18.63;61.18;100191.56;1642243;86;21080;-72
2021/08/23 06:46:33;;;;;;;2.83;1.87;;;;;;;18.82;60.18;100204.31;1639738;86;20194;-71
2021/08/23 06:49:00;;;;;;;2.22;1.62;;;;;;;18.72;60.16;100195.33;1640135;86;21117;-71
2021/08/23 06:51:27;;;;;;;2.92;1.90;;;;;;;18.43;59.49;100193.02;1684024;83;21564;-70
2021/08/23 06:53:53;;;;;;;2.75;1.80;;;;;;;18.37;61.66;100204.02;1718592;81;21772;-71
2021/08/23 06:56:21;;;;;;;2.95;1.75;;;;;;;18.39;60.92;100219.30;1713233;83;21567;-71
2021/08/23 06:58:48;;;;;;;2.75;1.72;;;;;;;18.50;61.06;100214.08;1711753;83;21022;-71
2021/08/23 07:01:15;;;;;;;4.08;1.90;;;;;;;18.65;61.16;100216.56;1711094;83;21951;-71
2021/08/23 07:03:42;;;;;;;2.33;1.50;;;;;;;18.92;61.39;100227.80;1728148;81;20980;-71
2021/08/23 07:06:09;;;;;;;2.77;1.75;;;;;;;19.01;60.19;100223.13;1704659;82;20977;-70
2021/08/23 07:08:35;;;;;;;4.12;1.57;;;;;;;19.03;59.17;100238.08;1709289;82;20986;-70
2021/08/23 07:11:02;;;;;;;4.50;1.75;;;;;;;19.28;59.76;100239.24;1711886;81;21005;-71
2021/08/23 07:13:29;;;;;;;4.30;1.70;;;;;;;19.31;58.59;100237.69;1690974;83;21070;-73
2021/08/23 07:16:00;;;;;;;1.98;1.60;;;;;;;19.49;59.47;100238.57;1713844;81;21968;-71
2021/08/23 07:18:29;;;;;;;2.77;1.60;;;;;;;19.63;59.68;100246.30;1707413;82;21288;-70
2021/08/23 07:20:56;;;;;;;3.70;1.60;;;;;;;19.81;59.44;100259.50;1711662;82;20970;-70
2021/08/23 07:23:22;;;;;;;2.58;1.72;;;;;;;19.66;58.93;100244.77;1712830;81;21035;-71
2021/08/23 07:25:49;;;;;;;4.45;1.92;;;;;;;19.34;57.80;100252.02;1712686;82;21087;-72
2021/08/23 07:28:16;;;;;;;4.70;1.60;;;;;;;19.00;57.80;100255.86;1684467;82;21029;-71
2021/08/23 07:30:44;;;;;;;3.08;1.55;;;;;;;18.80;57.51;100240.62;1709943;82;20943;-71
2021/08/23 07:33:14;;;;;;;1.60;1.40;;;;;;;18.80;57.94;100246.39;1706325;81;21038;-70
2021/08/23 07:35:41;;;;;;;1.95;1.50;;;;;;;18.67;56.71;100262.27;1685539;82;20963;-71
2021/08/23 07:38:08;;;;;;;2.00;1.50;;;;;;;18.23;54.62;100254.38;1713242;81;21026;-71
2021/08/23 07:40:35;;;;;;;2.25;1.40;;;;;;;18.24;55.87;100264.02;1710891;82;21782;-71
2021/08/23 07:43:02;;;;;;;2.20;1.30;;;;;;;18.19;56.46;100257.73;1714447;82;24495;-71
2021/08/23 07:45:29;;;;;;;1.90;1.20;;;;;;;18.21;56.69;100258.95;1712368;82;21017;-72
2021/08/23 07:47:55;;;;;;;3.87;1.37;;;;;;;17.96;56.03;100256.70;1726514;81;20963;-71
2021/08/23 07:50:22;;;;;;;2.33;1.30;;;;;;;17.70;56.68;100248.36;1708269;81;21139;-71
2021/08/23 07:52:49;;;;;;;10.95;2.00;;;;;;;17.61;56.33;100250.67;1704360;82;20970;-71
2021/08/23 07:55:16;;;;;;;2.52;1.60;;;;;;;17.33;56.77;100235.02;1705750;81;20985;-72
2021/08/23 07:57:47;;;;;;;2.45;1.50;;;;;;;17.31;57.43;100233.83;1704687;81;21587;-72
2021/08/23 08:00:18;;;;;;;3.98;1.52;;;;;;;17.76;57.60;100233.44;1703385;83;21689;-71
2021/08/23 08:02:47;;;;;;;2.08;1.45;;;;;;;18.11;57.45;100222.58;1707145;83;20943;-72
2021/08/23 08:05:13;;;;;;;2.17;1.35;;;;;;;18.27;56.75;100233.41;1704215;83;21483;-70
2021/08/23 08:07:41;;;;;;;4.55;1.70;;;;;;;18.43;57.16;100222.11;1708683;81;21061;-72
2021/08/23 08:10:11;;;;;;;3.10;1.47;;;;;;;18.30;53.31;100226.58;1711949;81;20998;-69
2021/08/23 08:12:39;;;;;;;4.40;1.82;;;;;;;18.01;56.03;100226.84;1705588;83;21100;-70
2021/08/23 08:15:08;;;;;;;3.17;1.30;;;;;;;17.68;55.78;100257.25;1706574;82;21133;-70
2021/08/23 08:17:35;;;;;;;2.25;1.30;;;;;;;17.50;56.24;100245.28;1705678;81;21005;-71
2021/08/23 08:20:06;;;;;;;1.80;1.40;;;;;;;17.20;56.20;100238.49;1706762;82;20937;-71
2021/08/23 08:22:33;;;;;;;2.15;1.45;;;;;;;17.19;56.42;100249.98;1706535;81;21566;-72
2021/08/23 08:24:59;;;;;;;1.57;1.20;;;;;;;17.22;56.33;100252.44;1703813;82;21065;-72
2021/08/23 08:27:26;;;;;;;1.82;1.27;;;;;;;17.31;56.48;100250.11;1683314;83;21081;-72
2021/08/23 08:29:53;;;;;;;2.95;1.55;;;;;;;17.50;56.16;100255.84;1713716;81;21104;-71
2021/08/23 08:32:21;;;;;;;4.03;1.40;;;;;;;17.61;55.81;100255.95;1713001;81;21617;-71
2021/08/23 08:34:47;;;;;;;;;;;;;;;17.60;55.71;100243.72;1711741;82;21021;-71
2021/08/23 08:37:14;;;;;;;2.27;1.57;;;;;;;17.74;55.76;100242.77;1711264;82;20128;-72
2021/08/23 08:39:41;;;;;;;2.12;1.30;;;;;;;18.08;56.05;100251.88;1711870;82;20951;-72
2021/08/23 08:42:07;;;;;;;8.53;1.75;;;;;;;18.37;55.76;100233.09;1721869;81;20994;-72
2021/08/23 08:44:34;;;;;;;8.58;1.40;;;;;;;18.61;55.73;100238.91;1714350;82;20954;-72
2021/08/23 08:47:04;;;;;;;3.85;1.52;;;;;;;18.70;55.03;100234.27;1712093;81;21538;-72
2021/08/23 08:49:35;;;;;;;2.00;1.42;;;;;;;18.94;55.79;100227.21;1715150;82;20951;-72
2021/08/23 08:52:04;;;;;;;4.45;1.50;;;;;;;19.09;55.47;100229.67;1715889;82;21606;-72
2021/08/23 08:54:31;;;;;;;3.27;1.47;;;;;;;19.20;55.69;100235.00;1718637;82;20946;-72
2021/08/23 08:57:01;;;;;;;2.25;1.27;;;;;;;19.10;55.55;100257.81;1710607;81;20946;-72
2021/08/23 08:59:29;;;;;;;4.05;1.37;;;;;;;18.57;55.73;100239.63;1712969;81;20947;-71
2021/08/23 09:01:57;;;;;;;2.72;1.50;;;;;;;18.54;56.63;100251.27;1717648;82;21052;-71
2021/08/23 09:04:36;;;;;;;4.47;1.50;;;;;;;18.70;56.48;100244.84;1717527;82;21097;-71
2021/08/23 09:07:08;;;;;;;2.20;1.37;;;;;;;18.71;56.13;100247.88;1713575;82;21041;-73
2021/08/23 09:09:36;;;;;;;4.87;1.92;;;;;;;18.64;56.17;100262.00;1715423;81;21002;-71
2021/08/23 09:12:08;;;;;;;3.00;2.00;;;;;;;18.54;55.92;100248.62;1718615;82;21033;-69
2021/08/23 09:14:40;;;;;;;2.90;1.87;;;;;;;18.61;56.02;100258.75;1709358;81;21053;-71
2021/08/23 09:17:09;;;;;;;3.98;2.37;;;;;;;18.55;55.95;100258.23;1710641;83;21184;-71
2021/08/23 09:19:37;;;;;;;3.58;1.90;;;;;;;18.45;55.96;100257.19;1711241;81;21075;-71
2021/08/23 09:22:11;;;;;;;1.75;1.47;;;;;;;18.33;56.25;100263.36;1720540;82;20982;-71
2021/08/23 09:24:40;;;;;;;4.28;1.40;;;;;;;18.58;56.36;100254.52;1717130;82;21271;-72
2021/08/23 09:27:10;;;;;;;4.22;1.90;;;;;;;18.41;56.13;100270.27;1718860;81;21033;-73
2021/08/23 09:30:01;;;;;;;4.17;1.55;;;;;;;17.99;56.09;100286.87;1720686;81;21237;-71
2021/08/23 09:32:32;;;;;;;2.33;1.50;;;;;;;17.65;56.45;100268.02;1716324;81;21116;-71
2021/08/23 09:36:59;;;;;;;2.77;1.40;;;;;;;17.54;56.98;100279.78;1797009;77;22795;-72
2021/08/23 09:39:29;;;;;;;2.75;1.50;;;;;;;17.56;56.94;100266.02;1817620;77;20934;-73
2021/08/23 09:42:08;;;;;;;3.00;1.65;;;;;;;17.84;57.18;100279.98;1818429;77;22129;-72
2021/08/23 09:44:37;;;;;;;4.90;1.70;;;;;;;17.99;56.84;100284.23;1823116;77;21001;-72
2021/08/23 09:47:06;;;;;;;2.30;1.52;;;;;;;18.14;56.28;100294.68;1814406;77;21016;-72
2021/08/23 09:49:42;;;;;;;2.83;1.70;;;;;;;18.06;55.92;100276.70;1823128;77;21191;-72
2021/08/23 09:52:16;;;;;;;4.42;1.82;;;;;;;17.91;55.58;100294.48;1836381;77;20998;-73
2021/08/23 09:54:42;;;;;;;3.02;1.70;;;;;;;17.91;55.89;100290.52;1821312;76;22028;-73
2021/08/23 09:57:11;;;;;;;1.55;1.45;;;;;;;18.09;55.66;100297.18;1811994;77;21036;-73
2021/08/23 09:59:39;;;;;;;2.92;1.60;;;;;;;18.32;55.27;100288.12;1815900;77;20981;-72
2021/08/23 10:02:09;;;;;;;1.80;1.30;;;;;;;18.48;55.50;100311.17;1801407;77;20949;-72
2021/08/23 10:04:37;;;;;;;2.62;1.15;;;;;;;18.36;54.74;100289.58;1818525;77;20934;-72
2021/08/23 10:07:04;;;;;;;2.80;1.70;;;;;;;18.25;54.05;100289.48;1820791;77;21057;-73
2021/08/23 10:10:31;;;;;;;2.10;1.57;;;;;;;18.22;54.97;100292.35;1869794;75;22775;-72
2021/08/23 10:13:00;;;;;;;2.45;1.67;;;;;;;18.43;55.38;100289.52;1840395;77;20949;-72
2021/08/23 10:15:28;;;;;;;1.95;1.37;;;;;;;18.47;54.27;100299.40;1846563;76;21875;-72
2021/08/23 10:17:55;;;;;;;2.45;1.50;;;;;;;18.20;54.59;100292.92;1840502;77;20977;-71
2021/08/23 10:20:21;;;;;;;36.30;3.70;;;;;;;17.98;54.85;100298.41;1835957;76;21472;-72
2021/08/23 10:22:49;;;;;;;2.52;1.45;;;;;;;17.88;54.90;100297.33;1845059;76;21539;-72
2021/08/23 10:25:17;;;;;;;2.95;1.35;;;;;;;17.88;55.09;100302.13;1829103;77;21014;-71
2021/08/23 10:27:44;;;;;;;20.27;3.22;;;;;;;18.03;54.93;100304.67;1826895;76;21059;-72
2021/08/23 10:30:24;;;;;;;1.95;1.17;;;;;;;18.02;54.65;100298.55;1844815;75;20996;-73
2021/08/23 10:32:53;;;;;;;3.47;1.25;;;;;;;17.92;54.59;100314.65;1831010;76;20946;-73
2021/08/23 10:35:26;;;;;;;4.87;1.70;;;;;;;17.96;55.19;100288.89;1834794;76;20977;-73
2021/08/23 10:37:55;;;;;;;21.42;2.40;;;;;;;18.27;54.93;100303.45;1831879;76;20986;-73
2021/08/23 10:40:34;;;;;;;3.25;1.30;;;;;;;18.40;54.91;100312.22;1844285;76;21862;-73
2021/08/23 10:43:23;;;;;;;3.87;1.45;;;;;;;18.52;54.91;100298.12;1841177;77;20973;-75
2021/08/23 10:45:50;;;;;;;2.20;1.40;;;;;;;18.68;54.94;100302.30;1815107;77;21041;-75
2021/08/23 10:48:20;;;;;;;1.98;1.47;;;;;;;18.79;54.89;100305.05;1828797;77;21012;-76
2021/08/23 10:51:02;;;;;;;2.40;1.40;;;;;;;18.69;54.37;100310.62;1835475;77;22121;-75
2021/08/23 10:53:37;;;;;;;2.17;1.20;;;;;;;18.53;54.75;100299.80;1830975;77;21044;-72
2021/08/23 10:56:18;;;;;;;2.50;1.30;;;;;;;18.42;54.61;100307.64;1840891;77;22235;-73
2021/08/23 10:58:47;;;;;;;1.55;1.20;;;;;;;18.19;54.78;100319.84;1831993;76;21593;-72
2021/08/23 11:01:22;;;;;;;1.82;1.30;;;;;;;17.92;55.25;100301.44;1801269;78;21128;-73
2021/08/23 11:04:02;;;;;;;2.37;1.30;;;;;;;18.33;55.87;100295.92;1768420;79;21022;-72
2021/08/23 11:06:44;;;;;;;;;;;;;;;;;;;;;
2021/08/23 11:09:10;;;;;;;2.45;1.57;;;;;;;19.15;55.25;100272.88;1790218;78;20966;-73
2021/08/23 11:11:38;;;;;;;2.77;1.52;;;;;;;19.29;54.70;100309.76;1785788;79;21592;-72
2021/08/23 11:14:41;;;;;;;5.40;1.77;;;;;;;19.33;54.85;100305.94;1752367;80;21665;-71
2021/08/23 11:17:08;;;;;;;2.17;1.50;;;;;;;19.26;54.57;100298.56;1692051;82;21519;-72
2021/08/23 11:19:40;;;;;;;2.75;1.40;;;;;;;18.98;54.57;100297.45;1654030;84;21094;-73
2021/08/23 11:22:08;;;;;;;4.22;1.60;;;;;;;18.90;54.84;100306.92;1679535;83;21097;-74
2021/08/23 11:25:45;;;;;;;2.67;1.52;;;;;;;19.11;54.88;100301.87;1857160;75;22709;-72
2021/08/23 11:28:28;;;;;;;2.00;1.30;;;;;;;19.21;54.46;100293.59;1812823;77;21219;-72
2021/08/23 11:30:58;;;;;;;2.90;1.50;;;;;;;19.28;54.30;100295.33;1798273;77;21254;-71
2021/08/23 11:33:29;;;;;;;5.72;1.40;;;;;;;19.24;54.16;100289.42;1809234;77;21510;-73
2021/08/23 11:35:57;;;;;;;117.82;9.88;;;;;;;19.13;53.78;100321.11;1812392;76;21001;-72
2021/08/23 11:38:33;;;;;;;4.17;1.45;;;;;;;18.55;53.67;100311.12;1814125;77;20942;-74
2021/08/23 11:41:00;;;;;;;3.30;1.60;;;;;;;18.53;54.52;100305.08;1820262;77;20961;-74
2021/08/23 11:43:29;;;;;;;2.37;1.40;;;;;;;18.88;54.52;100301.75;1817266;77;21058;-73
2021/08/23 11:45:58;;;;;;;2.00;1.65;;;;;;;19.04;54.24;100290.03;1817886;77;20980;-75
2021/08/23 11:48:25;;;;;;;3.12;1.57;;;;;;;18.90;53.89;100318.34;1788868;78;21032;-77
2021/08/23 11:50:53;;;;;;;3.33;1.60;;;;;;;18.37;53.87;100303.64;1809204;78;21181;-76
2021/08/23 11:53:22;;;;;;;2.15;1.70;;;;;;;18.13;54.24;100301.77;1806321;77;21004;-76
2021/08/23 11:55:51;;;;;;;3.05;1.60;;;;;;;18.26;54.44;100314.95;1812373;78;20933;-76
2021/08/23 11:58:21;;;;;;;2.95;1.17;;;;;;;18.32;54.29;100299.53;1804089;77;21021;-75
2021/08/23 12:01:06;;;;;;;1.60;1.35;;;;;;;18.42;54.62;100297.55;1806090;78;20913;-75
2021/08/23 12:03:37;;;;;;;1.67;1.27;;;;;;;18.61;54.25;100294.45;1814719;78;21047;-76